Latest  Newer  Older  Last 2 hours slideshow  Last 24 hours slideshow  Refresh every 5 minutes 
Current image  Latest image  Rain/snow radar  Cloud coverage sat images 

All time is UTC (add 2 hours to UTC in wintertime, 3 hours to UTC in DST for Latvia local time)

2020/09/29 04:20 EVRA 290420Z 17003KT 4500 BR FEW001 10/10 Q1018 NOSIG
2020/09/29 04:20 EVLA 290420Z AUTO 07003KT 0600 R24/0700N R06/P2000N FG NCD 06/06 Q1017
2020/09/29 04:20 EVVA 290420Z AUTO VRB01KT 0450 FG NSC 07/07 Q1018
2020/09/29 04:20 EYKA 290420Z 09004KT 9999 MIFG NSC 04/02 Q1018
2020/09/29 04:20 EYPA 290420Z 10003KT CAVOK 06/05 Q1018
2020/09/29 04:20 EYSA 290420Z 15002KT 6000 0600NW R14L/1000D PRFG NSC 04/04 Q1018 WHT TEMPO 8000 BLU
2020/09/29 04:20 EYVI 290420Z 09005KT CAVOK 08/06 Q1018 NOSIG
2020/09/29 04:20 EEKA 290420Z 00000KT 9999 OVC023 13/12 Q1017
2020/09/29 04:20 EEKE 290420Z AUTO 21005KT 9999NDV NCD 13/12 Q1017

2020/09/29 04:20 EETN 290420Z 12003KT 9999 OVC021 11/10 Q1018 NOSIG
2020/09/29 04:20 EETU 290420Z AUTO 10003KT 8000 OVC003/// 12/11 Q1018
   RIGA AIRPORT     EVRA               56 55N  023 58E   10   X     T          6 LV
   LIEPAJA INTL     EVLA        26406  56 31N  021 06E    4   X                8 LV
   VENTPILS         EVVA               57 21N  021 33E    6   X                8 LV
   KAUNAS           EYKA               54 54N  023 55E   77   X     T          6 LT
   PALANGA INTL     EYPA               55 55N  021 03E   10   X                6 LT
   SIAULIAI INTL    EYSA               55 54N  023 24E  135   X     T          6 LT
   VILNIUS INTL     EYVI        26730  54 38N  025 17E  197   X     T          6 LT
   KARDLA           EEKA        26116  58 59N  022 50E    4   X                8 EE
   KURESSAARE       EEKE               58 14N  022 31E    4   X                8 EE
   PARNU            EEPU               58 25N  024 28E   14   X                8 EE
   TALLINN          EETN        26038  59 24N  024 49E   40   X     T          8 EE
   TARTU            EETU               58 19N  026 41E   67   X                8 EE